sensor_id;sensor_type;location;lat;lon;timestamp;noise_LAeq;noise_LA_min;noise_LA_max;noise_LA01;noise_LA95
82733;Laerm;72790;51.538;5.968;2024-03-06T00:01:02;32.6;31.65;38.21;;
82733;Laerm;72790;51.538;5.968;2024-03-06T00:05:02;33.41;31.66;45.52;;
82733;Laerm;72790;51.538;5.968;2024-03-06T00:09:02;33.15;31.61;38.52;;
82733;Laerm;72790;51.538;5.968;2024-03-06T00:13:02;33.21;31.87;42.47;;
82733;Laerm;72790;51.538;5.968;2024-03-06T00:17:02;33.34;31.77;37.85;;
82733;Laerm;72790;51.538;5.968;2024-03-06T00:21:02;34.12;31.73;44.55;;
82733;Laerm;72790;51.538;5.968;2024-03-06T00:25:02;32.6;31.3;39.79;;
82733;Laerm;72790;51.538;5.968;2024-03-06T00:29:02;32.45;31.48;35.13;;
82733;Laerm;72790;51.538;5.968;2024-03-06T00:33:02;32.3;31.32;36.55;;
82733;Laerm;72790;51.538;5.968;2024-03-06T00:37:02;32.39;31.48;38.46;;
82733;Laerm;72790;51.538;5.968;2024-03-06T00:41:02;33;31.48;37.2;;
82733;Laerm;72790;51.538;5.968;2024-03-06T00:45:02;35.38;31.6;43.55;;
82733;Laerm;72790;51.538;5.968;2024-03-06T00:49:02;32.58;31.52;34.08;;
82733;Laerm;72790;51.538;5.968;2024-03-06T00:53:02;32.68;31.62;39.89;;
82733;Laerm;72790;51.538;5.968;2024-03-06T00:57:02;33.08;31.68;36.58;;
82733;Laerm;72790;51.538;5.968;2024-03-06T01:01:02;32.64;31.47;36.9;;
82733;Laerm;72790;51.538;5.968;2024-03-06T01:05:02;32.81;31.3;37.25;;
82733;Laerm;72790;51.538;5.968;2024-03-06T01:09:02;32.55;31.67;36.02;;
82733;Laerm;72790;51.538;5.968;2024-03-06T01:13:02;32.79;31.4;34.88;;
82733;Laerm;72790;51.538;5.968;2024-03-06T01:17:02;32.84;31.81;34.19;;
82733;Laerm;72790;51.538;5.968;2024-03-06T01:21:02;32.62;31.52;35.38;;
82733;Laerm;72790;51.538;5.968;2024-03-06T01:25:02;32.44;31.5;34.08;;
82733;Laerm;72790;51.538;5.968;2024-03-06T01:29:02;32.61;31.62;35.6;;
82733;Laerm;72790;51.538;5.968;2024-03-06T01:33:02;32.37;31.39;38.34;;
82733;Laerm;72790;51.538;5.968;2024-03-06T01:37:02;32.46;31.5;41.19;;
82733;Laerm;72790;51.538;5.968;2024-03-06T01:41:02;32.7;31.72;35.83;;
82733;Laerm;72790;51.538;5.968;2024-03-06T01:45:02;32.8;31.68;35.73;;
82733;Laerm;72790;51.538;5.968;2024-03-06T01:49:02;32.8;31.86;35.22;;
82733;Laerm;72790;51.538;5.968;2024-03-06T01:53:02;32.8;31.82;34.37;;
82733;Laerm;72790;51.538;5.968;2024-03-06T01:57:02;33.11;31.63;37.3;;
82733;Laerm;72790;51.538;5.968;2024-03-06T02:01:02;32.8;31.78;40.14;;
82733;Laerm;72790;51.538;5.968;2024-03-06T02:05:02;33.23;31.58;40.9;;
82733;Laerm;72790;51.538;5.968;2024-03-06T02:09:02;33.16;31.75;44.76;;
82733;Laerm;72790;51.538;5.968;2024-03-06T02:13:02;33.61;31.96;39.58;;
82733;Laerm;72790;51.538;5.968;2024-03-06T02:17:02;32.84;31.53;37.21;;
82733;Laerm;72790;51.538;5.968;2024-03-06T02:21:02;32.68;31.67;36.59;;
82733;Laerm;72790;51.538;5.968;2024-03-06T02:25:02;32.65;31.56;36.04;;
82733;Laerm;72790;51.538;5.968;2024-03-06T02:29:02;32.39;31.56;33.58;;
82733;Laerm;72790;51.538;5.968;2024-03-06T02:33:02;33.32;31.59;40.92;;
82733;Laerm;72790;51.538;5.968;2024-03-06T02:37:02;32.4;31.41;34.65;;
82733;Laerm;72790;51.538;5.968;2024-03-06T02:41:02;32.41;31.49;42.18;;
82733;Laerm;72790;51.538;5.968;2024-03-06T02:45:02;32.46;31.39;45.96;;
82733;Laerm;72790;51.538;5.968;2024-03-06T02:49:02;32.89;31.51;39.53;;
82733;Laerm;72790;51.538;5.968;2024-03-06T02:53:02;33.73;31.78;44.49;;
82733;Laerm;72790;51.538;5.968;2024-03-06T02:57:02;32.88;31.63;39.82;;
82733;Laerm;72790;51.538;5.968;2024-03-06T03:01:02;33.26;31.61;41.85;;
82733;Laerm;72790;51.538;5.968;2024-03-06T03:05:02;32.76;31.44;47.09;;
82733;Laerm;72790;51.538;5.968;2024-03-06T03:09:02;35.24;31.77;48.37;;
82733;Laerm;72790;51.538;5.968;2024-03-06T03:13:02;34.3;31.6;41.02;;
82733;Laerm;72790;51.538;5.968;2024-03-06T03:17:02;34;31.57;40.77;;
82733;Laerm;72790;51.538;5.968;2024-03-06T03:21:02;35.16;31.98;41.82;;
82733;Laerm;72790;51.538;5.968;2024-03-06T03:25:02;33.52;31.79;39.12;;
82733;Laerm;72790;51.538;5.968;2024-03-06T03:29:02;34.65;31.99;45.4;;
82733;Laerm;72790;51.538;5.968;2024-03-06T03:33:02;35.87;31.88;47.67;;
82733;Laerm;72790;51.538;5.968;2024-03-06T03:37:02;35.96;31.82;46.42;;
82733;Laerm;72790;51.538;5.968;2024-03-06T03:41:02;36.76;32.13;45.08;;
82733;Laerm;72790;51.538;5.968;2024-03-06T03:45:02;36.28;32;47.97;;
82733;Laerm;72790;51.538;5.968;2024-03-06T03:49:02;36.65;32.14;47.45;;
82733;Laerm;72790;51.538;5.968;2024-03-06T03:53:02;37.65;32.92;49.7;;
82733;Laerm;72790;51.538;5.968;2024-03-06T03:57:02;37.64;32.51;48.21;;
82733;Laerm;72790;51.538;5.968;2024-03-06T04:01:02;43.87;32.61;60.43;;
82733;Laerm;72790;51.538;5.968;2024-03-06T04:05:02;44.62;32.87;60.09;;
82733;Laerm;72790;51.538;5.968;2024-03-06T04:09:02;44.74;32.85;61.52;;
82733;Laerm;72790;51.538;5.968;2024-03-06T04:13:02;44.98;32.53;61.44;;
82733;Laerm;72790;51.538;5.968;2024-03-06T04:17:02;43.76;32.65;60.94;;
82733;Laerm;72790;51.538;5.968;2024-03-06T04:21:03;42.08;33.31;58.25;;
82733;Laerm;72790;51.538;5.968;2024-03-06T04:25:02;41.51;32.84;59.21;;
82733;Laerm;72790;51.538;5.968;2024-03-06T04:29:02;42.77;32.91;60.01;;
82733;Laerm;72790;51.538;5.968;2024-03-06T04:33:02;43;33.42;57.57;;
82733;Laerm;72790;51.538;5.968;2024-03-06T04:37:02;42.07;33.77;59.57;;
82733;Laerm;72790;51.538;5.968;2024-03-06T04:41:04;39.27;33.67;47;;
82733;Laerm;72790;51.538;5.968;2024-03-06T04:45:03;43.12;33.38;60.76;;
82733;Laerm;72790;51.538;5.968;2024-03-06T04:49:02;44.51;33.57;59.15;;
82733;Laerm;72790;51.538;5.968;2024-03-06T04:53:02;42.2;34.32;57.52;;
82733;Laerm;72790;51.538;5.968;2024-03-06T04:57:02;54.81;34.61;74.77;;
82733;Laerm;72790;51.538;5.968;2024-03-06T05:01:02;53.82;35.05;72.55;;
82733;Laerm;72790;51.538;5.968;2024-03-06T05:05:03;54.96;36.42;72.43;;
82733;Laerm;72790;51.538;5.968;2024-03-06T05:09:02;52.44;33.65;70.61;;
82733;Laerm;72790;51.538;5.968;2024-03-06T05:13:02;53.92;33.82;74.67;;
82733;Laerm;72790;51.538;5.968;2024-03-06T05:17:02;55.37;35.51;73.24;;
82733;Laerm;72790;51.538;5.968;2024-03-06T05:21:03;65.53;35.65;88.28;;
82733;Laerm;72790;51.538;5.968;2024-03-06T05:25:03;64.84;35.57;79.01;;
82733;Laerm;72790;51.538;5.968;2024-03-06T05:29:02;49.68;36.75;63.09;;
82733;Laerm;72790;51.538;5.968;2024-03-06T05:33:02;50.78;36.55;69.55;;
82733;Laerm;72790;51.538;5.968;2024-03-06T05:37:02;51.37;36.64;75.88;;
82733;Laerm;72790;51.538;5.968;2024-03-06T05:41:02;49.06;36.71;62.47;;
82733;Laerm;72790;51.538;5.968;2024-03-06T05:45:03;48.44;37.52;61.19;;
82733;Laerm;72790;51.538;5.968;2024-03-06T05:49:02;45.49;37.86;61.95;;
82733;Laerm;72790;51.538;5.968;2024-03-06T05:53:02;44.06;38.1;55.62;;
82733;Laerm;72790;51.538;5.968;2024-03-06T05:57:02;43.97;38.23;54.88;;
82733;Laerm;72790;51.538;5.968;2024-03-06T06:01:03;46.55;38.96;56.68;;
82733;Laerm;72790;51.538;5.968;2024-03-06T06:05:03;46.88;39.94;65.69;;
82733;Laerm;72790;51.538;5.968;2024-03-06T06:09:02;50.68;39.78;68.7;;
82733;Laerm;72790;51.538;5.968;2024-03-06T06:13:03;46.73;39.14;65.67;;
82733;Laerm;72790;51.538;5.968;2024-03-06T06:17:02;45.42;39.4;62.23;;
82733;Laerm;72790;51.538;5.968;2024-03-06T06:21:03;43.78;38.95;55.99;;
82733;Laerm;72790;51.538;5.968;2024-03-06T06:25:03;44.36;38.91;54.8;;
82733;Laerm;72790;51.538;5.968;2024-03-06T06:29:02;45.66;39.34;59.39;;
82733;Laerm;72790;51.538;5.968;2024-03-06T06:33:02;52.72;40.85;72.4;;
82733;Laerm;72790;51.538;5.968;2024-03-06T06:37:02;47.57;39.56;73.8;;
82733;Laerm;72790;51.538;5.968;2024-03-06T06:41:03;44.57;39.24;58.95;;
82733;Laerm;72790;51.538;5.968;2024-03-06T06:45:03;43.85;37.63;52.75;;
82733;Laerm;72790;51.538;5.968;2024-03-06T06:49:02;44.85;38.88;58.18;;
82733;Laerm;72790;51.538;5.968;2024-03-06T06:53:03;46.59;38.68;62.65;;
82733;Laerm;72790;51.538;5.968;2024-03-06T06:57:03;49.66;39.18;67.17;;
82733;Laerm;72790;51.538;5.968;2024-03-06T07:01:03;46.18;37.37;63.58;;
82733;Laerm;72790;51.538;5.968;2024-03-06T07:05:03;45.98;37.69;60.47;;
82733;Laerm;72790;51.538;5.968;2024-03-06T07:09:03;51.18;36.41;73.61;;
82733;Laerm;72790;51.538;5.968;2024-03-06T07:13:03;44.6;36.87;59.26;;
82733;Laerm;72790;51.538;5.968;2024-03-06T07:17:03;44.27;38.09;58.86;;
82733;Laerm;72790;51.538;5.968;2024-03-06T07:21:03;43.91;38.67;58.34;;
82733;Laerm;72790;51.538;5.968;2024-03-06T07:25:03;44.59;38.87;66.55;;
82733;Laerm;72790;51.538;5.968;2024-03-06T07:29:03;46.57;38.07;74.84;;
82733;Laerm;72790;51.538;5.968;2024-03-06T07:33:03;49.42;37.86;67.55;;
82733;Laerm;72790;51.538;5.968;2024-03-06T07:37:03;45.67;37.95;62.9;;
82733;Laerm;72790;51.538;5.968;2024-03-06T07:41:03;44.03;36.78;57.39;;
82733;Laerm;72790;51.538;5.968;2024-03-06T07:45:03;46.65;36.46;61.88;;
82733;Laerm;72790;51.538;5.968;2024-03-06T07:49:03;45.44;36.62;56.47;;
82733;Laerm;72790;51.538;5.968;2024-03-06T07:53:03;42.01;36.23;53.96;;
82733;Laerm;72790;51.538;5.968;2024-03-06T07:57:03;43.46;36.55;55.6;;
82733;Laerm;72790;51.538;5.968;2024-03-06T08:01:03;46.59;36.29;59.24;;
82733;Laerm;72790;51.538;5.968;2024-03-06T08:05:03;50.18;36.03;73.71;;
82733;Laerm;72790;51.538;5.968;2024-03-06T08:09:03;44.8;36.08;64.29;;
82733;Laerm;72790;51.538;5.968;2024-03-06T08:13:03;41.3;35.38;53.46;;
82733;Laerm;72790;51.538;5.968;2024-03-06T08:17:03;46.31;35.96;59.02;;
82733;Laerm;72790;51.538;5.968;2024-03-06T08:21:03;43.82;35.7;56.79;;
82733;Laerm;72790;51.538;5.968;2024-03-06T08:25:03;41.15;35.3;56.16;;
82733;Laerm;72790;51.538;5.968;2024-03-06T08:29:03;40.64;34.91;60.13;;
82733;Laerm;72790;51.538;5.968;2024-03-06T08:33:03;43.29;35.4;56.57;;
82733;Laerm;72790;51.538;5.968;2024-03-06T08:37:03;43.24;35.49;60.07;;
82733;Laerm;72790;51.538;5.968;2024-03-06T08:41:03;54.08;35.42;84.28;;
82733;Laerm;72790;51.538;5.968;2024-03-06T08:45:03;48.31;34.95;66.48;;
82733;Laerm;72790;51.538;5.968;2024-03-06T08:49:03;41.18;34.56;55.09;;
82733;Laerm;72790;51.538;5.968;2024-03-06T08:53:03;44.1;35.16;58.43;;
82733;Laerm;72790;51.538;5.968;2024-03-06T08:57:03;52.29;35.78;72.4;;
82733;Laerm;72790;51.538;5.968;2024-03-06T09:01:03;46.19;36.02;65.16;;
82733;Laerm;72790;51.538;5.968;2024-03-06T09:05:03;43.67;35.5;59.17;;
82733;Laerm;72790;51.538;5.968;2024-03-06T09:09:03;46.61;35.66;69.49;;
82733;Laerm;72790;51.538;5.968;2024-03-06T09:13:03;49.95;35.78;65.21;;
82733;Laerm;72790;51.538;5.968;2024-03-06T09:17:03;45.96;36.31;62.74;;
82733;Laerm;72790;51.538;5.968;2024-03-06T09:21:03;47.65;35.66;62.92;;
82733;Laerm;72790;51.538;5.968;2024-03-06T09:25:03;49.1;34.75;66.18;;
82733;Laerm;72790;51.538;5.968;2024-03-06T09:29:03;47.54;33.81;74.79;;
82733;Laerm;72790;51.538;5.968;2024-03-06T09:33:03;48.06;34.03;61.91;;
82733;Laerm;72790;51.538;5.968;2024-03-06T09:37:03;42.1;33.25;56.08;;
82733;Laerm;72790;51.538;5.968;2024-03-06T09:41:03;41.24;33.07;53.06;;
82733;Laerm;72790;51.538;5.968;2024-03-06T09:45:03;55.45;33.7;74.69;;
82733;Laerm;72790;51.538;5.968;2024-03-06T09:49:03;44.92;34.13;61.61;;
82733;Laerm;72790;51.538;5.968;2024-03-06T09:53:03;41.13;32.77;62.94;;
82733;Laerm;72790;51.538;5.968;2024-03-06T09:57:03;45.45;33.56;68.96;;
82733;Laerm;72790;51.538;5.968;2024-03-06T10:01:03;45.02;33.63;61.52;;
82733;Laerm;72790;51.538;5.968;2024-03-06T10:05:03;45.91;33.96;58.32;;
82733;Laerm;72790;51.538;5.968;2024-03-06T10:09:03;43.24;32.69;58.61;;
82733;Laerm;72790;51.538;5.968;2024-03-06T10:13:03;44.11;33.19;69.23;;
82733;Laerm;72790;51.538;5.968;2024-03-06T10:17:03;45.32;34.03;57.94;;
82733;Laerm;72790;51.538;5.968;2024-03-06T10:21:03;45.09;34.35;59.81;;
82733;Laerm;72790;51.538;5.968;2024-03-06T10:25:04;42.8;33.17;56.26;;
82733;Laerm;72790;51.538;5.968;2024-03-06T10:29:03;61.66;34.71;78.3;;
82733;Laerm;72790;51.538;5.968;2024-03-06T10:33:03;52.03;32.83;70.1;;
82733;Laerm;72790;51.538;5.968;2024-03-06T10:37:03;44.43;34.46;58;;
82733;Laerm;72790;51.538;5.968;2024-03-06T10:41:03;48.76;34.49;60.4;;
82733;Laerm;72790;51.538;5.968;2024-03-06T10:45:03;53.32;35.01;67.15;;
82733;Laerm;72790;51.538;5.968;2024-03-06T10:49:03;47.3;33.32;68.03;;
82733;Laerm;72790;51.538;5.968;2024-03-06T10:53:03;42.61;32.87;60.26;;
82733;Laerm;72790;51.538;5.968;2024-03-06T10:57:03;42.3;34.46;55.1;;
82733;Laerm;72790;51.538;5.968;2024-03-06T11:01:03;42.45;35.14;54.2;;
82733;Laerm;72790;51.538;5.968;2024-03-06T11:05:03;46.43;33.58;61.08;;
82733;Laerm;72790;51.538;5.968;2024-03-06T11:09:03;41.24;33.33;57.54;;
82733;Laerm;72790;51.538;5.968;2024-03-06T11:13:03;43.02;33.31;62.04;;
82733;Laerm;72790;51.538;5.968;2024-03-06T11:17:03;46.84;33.87;71.16;;
82733;Laerm;72790;51.538;5.968;2024-03-06T11:21:27;46.52;33.46;66.77;;
82733;Laerm;72790;51.538;5.968;2024-03-06T11:25:03;43.73;33.78;59.32;;
82733;Laerm;72790;51.538;5.968;2024-03-06T11:29:03;58.84;33.24;84.12;;
82733;Laerm;72790;51.538;5.968;2024-03-06T11:33:03;46.28;33.16;70.05;;
82733;Laerm;72790;51.538;5.968;2024-03-06T11:37:03;39.99;33.8;59.05;;
82733;Laerm;72790;51.538;5.968;2024-03-06T11:41:04;47.25;33.97;66.24;;
82733;Laerm;72790;51.538;5.968;2024-03-06T11:45:12;47.02;33.06;61.73;;
82733;Laerm;72790;51.538;5.968;2024-03-06T11:49:03;44.22;32.85;59.77;;
82733;Laerm;72790;51.538;5.968;2024-03-06T11:53:03;48.19;33.17;73.6;;
82733;Laerm;72790;51.538;5.968;2024-03-06T11:57:04;44.61;33.14;57.82;;
82733;Laerm;72790;51.538;5.968;2024-03-06T12:01:03;44.66;32.67;56.5;;
82733;Laerm;72790;51.538;5.968;2024-03-06T12:05:04;48.85;33.46;74.68;;
82733;Laerm;72790;51.538;5.968;2024-03-06T12:09:03;46.37;33.26;63.62;;
82733;Laerm;72790;51.538;5.968;2024-03-06T12:13:03;51.11;33.52;67.77;;
82733;Laerm;72790;51.538;5.968;2024-03-06T12:17:03;46.34;33.18;70.37;;
82733;Laerm;72790;51.538;5.968;2024-03-06T12:21:04;48.61;34.21;67.25;;
82733;Laerm;72790;51.538;5.968;2024-03-06T12:25:03;45.55;33.16;62.56;;
82733;Laerm;72790;51.538;5.968;2024-03-06T12:29:04;48.22;33.04;69.45;;
82733;Laerm;72790;51.538;5.968;2024-03-06T12:33:03;44.37;33.23;66.09;;
82733;Laerm;72790;51.538;5.968;2024-03-06T12:37:07;43.11;33.02;72.42;;
82733;Laerm;72790;51.538;5.968;2024-03-06T12:41:03;41.18;33.84;58.18;;
82733;Laerm;72790;51.538;5.968;2024-03-06T12:45:03;44.28;34.32;60.76;;
82733;Laerm;72790;51.538;5.968;2024-03-06T12:49:03;42.05;33.3;56.61;;
82733;Laerm;72790;51.538;5.968;2024-03-06T12:53:03;46.13;34.26;58.49;;
82733;Laerm;72790;51.538;5.968;2024-03-06T12:57:03;44.27;34.25;57.66;;
82733;Laerm;72790;51.538;5.968;2024-03-06T13:01:03;44.36;33.8;62.11;;
82733;Laerm;72790;51.538;5.968;2024-03-06T13:05:03;57.7;35.24;75.21;;
82733;Laerm;72790;51.538;5.968;2024-03-06T13:09:03;47.25;35.22;62.64;;
82733;Laerm;72790;51.538;5.968;2024-03-06T13:13:03;45.74;33.78;60.94;;
82733;Laerm;72790;51.538;5.968;2024-03-06T13:17:03;42.67;34.36;61.85;;
82733;Laerm;72790;51.538;5.968;2024-03-06T13:21:03;40.86;33.56;53.38;;
82733;Laerm;72790;51.538;5.968;2024-03-06T13:25:03;41.97;33.21;58.34;;
82733;Laerm;72790;51.538;5.968;2024-03-06T13:29:03;45.52;34.41;59.58;;
82733;Laerm;72790;51.538;5.968;2024-03-06T13:33:03;42.73;33.35;60.04;;
82733;Laerm;72790;51.538;5.968;2024-03-06T13:37:03;49.92;33.8;66.28;;
82733;Laerm;72790;51.538;5.968;2024-03-06T13:41:03;40.23;34.23;53.78;;
82733;Laerm;72790;51.538;5.968;2024-03-06T13:45:03;40.59;33.85;58.24;;
82733;Laerm;72790;51.538;5.968;2024-03-06T13:49:03;39.98;33.85;54.27;;
82733;Laerm;72790;51.538;5.968;2024-03-06T13:53:03;48.2;33.89;62.82;;
82733;Laerm;72790;51.538;5.968;2024-03-06T13:57:03;41.56;33.89;58.64;;
82733;Laerm;72790;51.538;5.968;2024-03-06T14:01:03;37.94;33.41;55.85;;
82733;Laerm;72790;51.538;5.968;2024-03-06T14:05:03;40.08;33.25;63.15;;
82733;Laerm;72790;51.538;5.968;2024-03-06T14:09:03;38.96;33.43;51.94;;
82733;Laerm;72790;51.538;5.968;2024-03-06T14:13:03;40.41;33;56.28;;
82733;Laerm;72790;51.538;5.968;2024-03-06T14:17:03;38.1;32.56;50.89;;
82733;Laerm;72790;51.538;5.968;2024-03-06T14:21:03;38.25;33.17;50.16;;
82733;Laerm;72790;51.538;5.968;2024-03-06T14:25:03;38.19;33.4;54.96;;
82733;Laerm;72790;51.538;5.968;2024-03-06T14:29:03;43.58;33.44;58.97;;
82733;Laerm;72790;51.538;5.968;2024-03-06T14:33:03;44.56;33.44;59.28;;
82733;Laerm;72790;51.538;5.968;2024-03-06T14:37:03;44.46;33.97;61.23;;
82733;Laerm;72790;51.538;5.968;2024-03-06T14:41:03;39.46;33.24;50.66;;
82733;Laerm;72790;51.538;5.968;2024-03-06T14:45:03;49.84;33.15;62.63;;
82733;Laerm;72790;51.538;5.968;2024-03-06T14:49:03;40.77;32.87;61.39;;
82733;Laerm;72790;51.538;5.968;2024-03-06T14:53:03;42.55;33.29;57.68;;
82733;Laerm;72790;51.538;5.968;2024-03-06T14:57:03;43.93;34.62;56.16;;
82733;Laerm;72790;51.538;5.968;2024-03-06T15:01:04;43.64;33.67;56;;
82733;Laerm;72790;51.538;5.968;2024-03-06T15:05:03;39.54;33.15;58.82;;
82733;Laerm;72790;51.538;5.968;2024-03-06T15:09:03;38.93;33.43;56.19;;
82733;Laerm;72790;51.538;5.968;2024-03-06T15:13:03;39.25;33.48;50.85;;
82733;Laerm;72790;51.538;5.968;2024-03-06T15:17:03;37.05;33.06;54.92;;
82733;Laerm;72790;51.538;5.968;2024-03-06T15:21:03;43.4;34.4;64.19;;
82733;Laerm;72790;51.538;5.968;2024-03-06T15:25:04;42.85;33.75;65.61;;
82733;Laerm;72790;51.538;5.968;2024-03-06T15:29:03;39.08;33.13;61.69;;
82733;Laerm;72790;51.538;5.968;2024-03-06T15:33:03;40.94;33.99;59.22;;
82733;Laerm;72790;51.538;5.968;2024-03-06T15:37:04;38.05;33.54;48.17;;
82733;Laerm;72790;51.538;5.968;2024-03-06T15:41:03;38.6;33.49;51.8;;
82733;Laerm;72790;51.538;5.968;2024-03-06T15:45:04;39.67;33.7;51.63;;
82733;Laerm;72790;51.538;5.968;2024-03-06T15:49:06;42.79;34.64;57.58;;
82733;Laerm;72790;51.538;5.968;2024-03-06T15:53:03;43.32;34.73;59.03;;
82733;Laerm;72790;51.538;5.968;2024-03-06T15:57:04;42.42;33.96;58.68;;
82733;Laerm;72790;51.538;5.968;2024-03-06T16:01:03;40.51;34.68;59.12;;
82733;Laerm;72790;51.538;5.968;2024-03-06T16:05:04;40.74;34.48;54.88;;
82733;Laerm;72790;51.538;5.968;2024-03-06T16:09:03;40.64;35.18;60.09;;
82733;Laerm;72790;51.538;5.968;2024-03-06T16:13:03;43.8;34.77;60.33;;
82733;Laerm;72790;51.538;5.968;2024-03-06T16:17:03;42.12;35.47;60.64;;
82733;Laerm;72790;51.538;5.968;2024-03-06T16:21:04;39.94;34.99;52.65;;
82733;Laerm;72790;51.538;5.968;2024-03-06T16:25:04;40.06;35.4;59.03;;
82733;Laerm;72790;51.538;5.968;2024-03-06T16:29:03;41.02;35.62;54.64;;
82733;Laerm;72790;51.538;5.968;2024-03-06T16:33:04;42.5;35.3;56.36;;
82733;Laerm;72790;51.538;5.968;2024-03-06T16:37:03;45.55;35.51;65.75;;
82733;Laerm;72790;51.538;5.968;2024-03-06T16:41:04;41.1;34.87;57.34;;
82733;Laerm;72790;51.538;5.968;2024-03-06T16:45:04;41.32;35.4;58.38;;
82733;Laerm;72790;51.538;5.968;2024-03-06T16:49:03;41.57;34.92;55.58;;
82733;Laerm;72790;51.538;5.968;2024-03-06T16:53:04;40.34;34.32;57.52;;
82733;Laerm;72790;51.538;5.968;2024-03-06T16:57:03;44.15;33.99;53.36;;
82733;Laerm;72790;51.538;5.968;2024-03-06T17:01:04;41.35;35.04;66.72;;
82733;Laerm;72790;51.538;5.968;2024-03-06T17:05:04;40.02;34.91;48.26;;
82733;Laerm;72790;51.538;5.968;2024-03-06T17:09:03;42.11;34.89;61.66;;
82733;Laerm;72790;51.538;5.968;2024-03-06T17:13:04;44.64;35.39;67.11;;
82733;Laerm;72790;51.538;5.968;2024-03-06T17:17:03;40.63;35.41;52.04;;
82733;Laerm;72790;51.538;5.968;2024-03-06T17:21:04;44.34;35.72;60.67;;
82733;Laerm;72790;51.538;5.968;2024-03-06T17:25:04;42.91;36.51;57.1;;
82733;Laerm;72790;51.538;5.968;2024-03-06T17:29:04;41.76;35.47;54.95;;
82733;Laerm;72790;51.538;5.968;2024-03-06T17:33:04;44.17;34.65;61.6;;
82733;Laerm;72790;51.538;5.968;2024-03-06T17:37:04;46.65;34.73;63.97;;
82733;Laerm;72790;51.538;5.968;2024-03-06T17:41:04;47.61;35.04;70.43;;
82733;Laerm;72790;51.538;5.968;2024-03-06T17:45:04;58.65;35.55;81.97;;
82733;Laerm;72790;51.538;5.968;2024-03-06T17:49:04;42.15;34.73;58.11;;
82733;Laerm;72790;51.538;5.968;2024-03-06T17:53:04;49.73;35.26;72.04;;
82733;Laerm;72790;51.538;5.968;2024-03-06T17:57:04;50.74;35.91;71.55;;
82733;Laerm;72790;51.538;5.968;2024-03-06T18:01:04;59.15;35.28;72.76;;
82733;Laerm;72790;51.538;5.968;2024-03-06T18:05:04;57.49;35.6;73.78;;
82733;Laerm;72790;51.538;5.968;2024-03-06T18:09:04;39.35;35.71;49.57;;
82733;Laerm;72790;51.538;5.968;2024-03-06T18:13:04;39;35.03;52.42;;
82733;Laerm;72790;51.538;5.968;2024-03-06T18:17:04;41.78;35.71;62.93;;
82733;Laerm;72790;51.538;5.968;2024-03-06T18:21:04;42.91;35.18;59.97;;
82733;Laerm;72790;51.538;5.968;2024-03-06T18:25:04;40.56;34.64;60.38;;
82733;Laerm;72790;51.538;5.968;2024-03-06T18:29:04;38.23;35.46;44.79;;
82733;Laerm;72790;51.538;5.968;2024-03-06T18:33:04;39.56;35.22;54.19;;
82733;Laerm;72790;51.538;5.968;2024-03-06T18:37:04;38.81;34.19;53.47;;
82733;Laerm;72790;51.538;5.968;2024-03-06T18:41:04;36.97;34.96;43.05;;
82733;Laerm;72790;51.538;5.968;2024-03-06T18:45:04;39.41;35.77;54.04;;
82733;Laerm;72790;51.538;5.968;2024-03-06T18:49:04;38.51;35.93;49.25;;
82733;Laerm;72790;51.538;5.968;2024-03-06T18:53:04;38.7;36.04;51.75;;
82733;Laerm;72790;51.538;5.968;2024-03-06T18:57:04;39.32;36.23;53.1;;
82733;Laerm;72790;51.538;5.968;2024-03-06T19:01:04;38.23;35.71;46.97;;
82733;Laerm;72790;51.538;5.968;2024-03-06T19:05:04;39.92;35.35;48.56;;
82733;Laerm;72790;51.538;5.968;2024-03-06T19:09:04;38.73;35.9;48.26;;
82733;Laerm;72790;51.538;5.968;2024-03-06T19:13:04;37.93;35.25;51.11;;
82733;Laerm;72790;51.538;5.968;2024-03-06T19:17:04;42.35;35.6;65.51;;
82733;Laerm;72790;51.538;5.968;2024-03-06T19:21:04;39.38;35.11;51.59;;
82733;Laerm;72790;51.538;5.968;2024-03-06T19:25:05;37.72;35.08;46.49;;
82733;Laerm;72790;51.538;5.968;2024-03-06T19:29:04;38.48;35.31;50.52;;
82733;Laerm;72790;51.538;5.968;2024-03-06T19:33:04;38.05;35.18;43.73;;
82733;Laerm;72790;51.538;5.968;2024-03-06T19:37:04;41.96;35.09;56.68;;
82733;Laerm;72790;51.538;5.968;2024-03-06T19:41:04;38.4;35.85;44.57;;
82733;Laerm;72790;51.538;5.968;2024-03-06T19:45:04;38.65;35.82;58.85;;
82733;Laerm;72790;51.538;5.968;2024-03-06T19:49:04;38.4;34.73;48.61;;
82733;Laerm;72790;51.538;5.968;2024-03-06T19:53:04;37.6;35.21;50.16;;
82733;Laerm;72790;51.538;5.968;2024-03-06T19:57:04;40.06;35.18;54.08;;
82733;Laerm;72790;51.538;5.968;2024-03-06T20:01:04;39.49;35.4;61.99;;
82733;Laerm;72790;51.538;5.968;2024-03-06T20:05:04;38.82;34.82;61.59;;
82733;Laerm;72790;51.538;5.968;2024-03-06T20:09:04;39.74;35.11;64.23;;
82733;Laerm;72790;51.538;5.968;2024-03-06T20:13:04;37.1;34.8;45.69;;
82733;Laerm;72790;51.538;5.968;2024-03-06T20:17:04;37.33;34.87;48.96;;
82733;Laerm;72790;51.538;5.968;2024-03-06T20:21:04;37.14;34.98;47.54;;
82733;Laerm;72790;51.538;5.968;2024-03-06T20:25:04;36.74;34.62;40.72;;
82733;Laerm;72790;51.538;5.968;2024-03-06T20:29:04;37.91;34.59;50.83;;
82733;Laerm;72790;51.538;5.968;2024-03-06T20:33:04;37.32;35;48.59;;
82733;Laerm;72790;51.538;5.968;2024-03-06T20:37:04;37.44;34.51;50.05;;
82733;Laerm;72790;51.538;5.968;2024-03-06T20:41:04;36.76;34.48;48.91;;
82733;Laerm;72790;51.538;5.968;2024-03-06T20:45:04;36.41;34.49;42.71;;
82733;Laerm;72790;51.538;5.968;2024-03-06T20:49:04;37.48;34.29;46;;
82733;Laerm;72790;51.538;5.968;2024-03-06T20:53:04;35.94;34.1;44.33;;
82733;Laerm;72790;51.538;5.968;2024-03-06T20:57:04;37.9;34.17;52.8;;
82733;Laerm;72790;51.538;5.968;2024-03-06T21:01:04;36.64;34.26;41.13;;
82733;Laerm;72790;51.538;5.968;2024-03-06T21:05:04;36.35;34.4;40.98;;
82733;Laerm;72790;51.538;5.968;2024-03-06T21:09:04;36.39;34.32;44.24;;
82733;Laerm;72790;51.538;5.968;2024-03-06T21:13:04;36.64;34.14;46.64;;
82733;Laerm;72790;51.538;5.968;2024-03-06T21:17:04;36.12;34.28;42.01;;
82733;Laerm;72790;51.538;5.968;2024-03-06T21:21:04;36.87;34.03;56.99;;
82733;Laerm;72790;51.538;5.968;2024-03-06T21:25:05;36.72;34.49;57.06;;
82733;Laerm;72790;51.538;5.968;2024-03-06T21:29:04;35.71;33.69;41.8;;
82733;Laerm;72790;51.538;5.968;2024-03-06T21:33:04;38.33;34.18;58.02;;
82733;Laerm;72790;51.538;5.968;2024-03-06T21:37:04;39.49;33.85;59.13;;
82733;Laerm;72790;51.538;5.968;2024-03-06T21:41:04;38.83;34.1;53.05;;
82733;Laerm;72790;51.538;5.968;2024-03-06T21:45:04;37.26;34.76;42.77;;
82733;Laerm;72790;51.538;5.968;2024-03-06T21:49:04;35.99;34.09;43.48;;
82733;Laerm;72790;51.538;5.968;2024-03-06T21:53:04;35.77;33.67;40.33;;
82733;Laerm;72790;51.538;5.968;2024-03-06T21:57:04;35.73;33.64;46.94;;
82733;Laerm;72790;51.538;5.968;2024-03-06T22:01:04;35.83;33.79;42.02;;
82733;Laerm;72790;51.538;5.968;2024-03-06T22:05:04;35.42;33.2;48;;
82733;Laerm;72790;51.538;5.968;2024-03-06T22:09:06;35.75;33.63;43.64;;
82733;Laerm;72790;51.538;5.968;2024-03-06T22:13:04;36.06;33.91;46.68;;
82733;Laerm;72790;51.538;5.968;2024-03-06T22:17:04;35.87;33.71;47.62;;
82733;Laerm;72790;51.538;5.968;2024-03-06T22:21:04;35.33;33.43;40.47;;
82733;Laerm;72790;51.538;5.968;2024-03-06T22:25:04;35.68;33.34;42.02;;
82733;Laerm;72790;51.538;5.968;2024-03-06T22:29:04;35.59;33.24;39.6;;